createdAt,value
2017-12-11T00:02:19.082Z,9.15
2017-12-11T00:04:46.531Z,10.60
2017-12-11T00:07:14.011Z,10.05
2017-12-11T00:09:41.483Z,8.55
2017-12-11T00:12:08.999Z,11.02
2017-12-11T00:14:37.223Z,9.18
2017-12-11T00:17:04.696Z,8.75
2017-12-11T00:19:32.159Z,12.37
2017-12-11T00:22:00.413Z,11.50
2017-12-11T00:24:28.640Z,11.05
2017-12-11T00:26:56.124Z,12.20
2017-12-11T00:29:24.359Z,8.82
2017-12-11T00:31:51.822Z,10.95
2017-12-11T00:34:20.056Z,8.73
2017-12-11T00:36:48.325Z,8.57
2017-12-11T00:39:15.872Z,9.93
2017-12-11T00:41:44.132Z,9.98
2017-12-11T00:44:12.357Z,10.77
2017-12-11T00:46:39.834Z,7.95
2017-12-11T00:49:08.093Z,9.55
2017-12-11T00:51:36.312Z,6.68
2017-12-11T00:54:03.804Z,8.23
2017-12-11T00:56:32.052Z,9.45
2017-12-11T00:59:00.280Z,8.05
2017-12-11T01:01:27.857Z,8.27
2017-12-11T01:03:56.139Z,9.55
2017-12-11T01:06:24.380Z,9.07
2017-12-11T01:08:52.632Z,8.10
2017-12-11T01:11:20.180Z,9.00
2017-12-11T01:13:48.420Z,6.15
2017-12-11T01:16:15.989Z,10.38
2017-12-11T01:18:44.240Z,8.45
2017-12-11T01:21:11.786Z,9.15
2017-12-11T01:23:39.244Z,9.35
2017-12-11T01:26:07.489Z,10.43
2017-12-11T01:28:35.728Z,9.65
2017-12-11T01:31:03.294Z,9.70
2017-12-11T01:33:31.552Z,10.15
2017-12-11T01:35:59.812Z,7.47
2017-12-11T01:38:27.275Z,10.60
2017-12-11T01:40:55.508Z,9.38
2017-12-11T01:43:22.977Z,11.15
2017-12-11T01:45:51.212Z,8.18
2017-12-11T01:48:19.484Z,9.75
2017-12-11T01:50:47.700Z,9.30
2017-12-11T01:53:15.184Z,11.05
2017-12-11T01:55:43.408Z,9.15
2017-12-11T01:58:10.886Z,9.73
2017-12-11T02:00:39.128Z,8.82
2017-12-11T02:03:06.583Z,10.35
2017-12-11T02:05:34.840Z,10.40
2017-12-11T02:08:03.116Z,10.82
2017-12-11T02:10:31.347Z,10.50
2017-12-11T02:12:58.812Z,10.38
2017-12-11T02:15:27.048Z,11.27
2017-12-11T02:17:54.605Z,10.30
2017-12-11T02:20:22.064Z,10.40
2017-12-11T02:22:50.363Z,10.43
2017-12-11T02:25:17.769Z,9.73
2017-12-11T02:27:46.012Z,10.57
2017-12-11T02:30:14.238Z,11.12
2017-12-11T02:32:41.813Z,11.15
2017-12-11T02:35:10.073Z,10.10
2017-12-11T02:37:38.296Z,12.18
2017-12-11T02:40:05.760Z,11.55
2017-12-11T02:42:33.316Z,11.55
2017-12-11T02:45:01.550Z,11.95
2017-12-11T02:47:29.009Z,10.48
2017-12-11T02:49:56.581Z,10.18
2017-12-11T02:52:24.811Z,11.18
2017-12-11T02:54:52.292Z,10.30
2017-12-11T02:57:19.822Z,11.45
2017-12-11T02:59:48.048Z,9.70
2017-12-11T03:02:15.543Z,10.00
2017-12-11T03:04:43.004Z,10.02
2017-12-11T03:07:10.466Z,10.13
2017-12-11T03:09:38.036Z,9.57
2017-12-11T03:12:06.258Z,9.48
2017-12-11T03:14:33.740Z,10.00
2017-12-11T03:17:02.000Z,9.25
2017-12-11T03:19:30.240Z,11.00
2017-12-11T03:21:57.699Z,10.65
2017-12-11T03:24:25.960Z,10.02
2017-12-11T03:26:54.204Z,10.07
2017-12-11T03:29:21.659Z,11.25
2017-12-11T03:31:49.924Z,10.93
2017-12-11T03:34:18.144Z,10.00
2017-12-11T03:36:45.620Z,9.27
2017-12-11T03:39:13.164Z,10.55
2017-12-11T03:41:41.393Z,8.50
2017-12-11T03:44:08.849Z,9.80
2017-12-11T03:46:36.324Z,9.55
2017-12-11T03:49:04.564Z,9.75
2017-12-11T03:51:32.029Z,10.40
2017-12-11T03:53:59.500Z,9.40
2017-12-11T03:56:26.956Z,10.73
2017-12-11T03:58:54.432Z,10.27
2017-12-11T04:01:21.978Z,9.90
2017-12-11T04:03:50.240Z,9.55
2017-12-11T04:06:18.490Z,10.63
2017-12-11T04:08:46.048Z,10.55
2017-12-11T04:11:14.272Z,9.93
2017-12-11T04:13:41.852Z,10.43
2017-12-11T04:16:10.073Z,11.15
2017-12-11T04:18:37.552Z,10.15
2017-12-11T04:21:05.810Z,11.18
2017-12-11T04:23:34.028Z,11.43
2017-12-11T04:26:01.521Z,11.00
2017-12-11T04:28:29.750Z,9.82
2017-12-11T04:30:58.341Z,11.55
2017-12-11T04:33:26.567Z,12.10
2017-12-11T04:35:54.028Z,11.20
2017-12-11T04:38:21.590Z,10.52
2017-12-11T04:40:49.847Z,11.98
2017-12-11T04:43:18.082Z,11.02
2017-12-11T04:45:45.751Z,10.63
2017-12-11T04:48:14.010Z,11.20
2017-12-11T04:50:42.237Z,10.65
2017-12-11T04:53:09.696Z,11.38
2017-12-11T04:55:37.364Z,10.90
2017-12-11T04:58:05.592Z,11.38
2017-12-11T05:00:33.053Z,12.20
2017-12-11T05:03:00.515Z,11.00
2017-12-11T05:05:27.980Z,11.82
2017-12-11T05:07:55.451Z,12.57
2017-12-11T05:10:22.920Z,12.32
2017-12-11T05:12:50.376Z,12.37
2017-12-11T05:15:18.604Z,11.70
2017-12-11T05:17:46.079Z,13.00
2017-12-11T05:20:14.334Z,12.57
2017-12-11T05:22:42.584Z,12.35
2017-12-11T05:25:10.824Z,12.40
2017-12-11T05:27:38.285Z,12.70
2017-12-11T05:30:05.743Z,14.52
2017-12-11T05:32:34.092Z,13.98
2017-12-11T05:35:02.355Z,13.90
2017-12-11T05:37:30.575Z,14.40
2017-12-11T05:39:58.069Z,14.07
2017-12-11T05:42:26.292Z,14.52
2017-12-11T05:44:53.856Z,12.18
2017-12-11T05:47:21.317Z,13.45
2017-12-11T05:49:48.780Z,14.15
2017-12-11T05:52:16.279Z,13.45
2017-12-11T05:54:44.504Z,13.82
2017-12-11T05:57:11.984Z,14.85
2017-12-11T05:59:40.228Z,15.52
2017-12-11T06:02:07.679Z,13.15
2017-12-11T06:04:35.948Z,15.82
2017-12-11T06:07:04.189Z,15.18
2017-12-11T06:09:31.649Z,13.00
2017-12-11T06:11:59.876Z,14.10
2017-12-11T06:14:27.449Z,12.70
2017-12-11T06:16:55.820Z,13.68
2017-12-11T06:19:24.049Z,13.57
2017-12-11T06:21:51.520Z,13.32
2017-12-11T06:24:19.775Z,13.70
2017-12-11T06:26:48.016Z,12.35
2017-12-11T06:29:15.479Z,13.65
2017-12-11T06:31:43.703Z,13.52
2017-12-11T06:34:11.181Z,14.93
2017-12-11T06:36:39.409Z,14.40
2017-12-11T06:39:06.886Z,13.48
2017-12-11T06:41:35.104Z,13.15
2017-12-11T06:44:02.583Z,13.75
2017-12-11T06:46:30.847Z,13.10
2017-12-11T06:48:59.072Z,13.60
2017-12-11T06:51:26.536Z,14.18
2017-12-11T06:53:54.089Z,13.80
2017-12-11T06:56:22.347Z,13.18
2017-12-11T06:58:50.573Z,14.50
2017-12-11T07:01:18.051Z,12.52
2017-12-11T07:03:46.318Z,12.77
2017-12-11T07:06:14.572Z,14.45
2017-12-11T07:08:42.928Z,13.30
2017-12-11T07:11:11.157Z,13.98
2017-12-11T07:13:38.732Z,14.20
2017-12-11T07:16:06.968Z,12.27
2017-12-11T07:18:34.438Z,13.75
2017-12-11T07:21:02.704Z,12.73
2017-12-11T07:23:30.960Z,13.20
2017-12-11T07:25:59.212Z,13.77
2017-12-11T07:28:27.482Z,12.88
2017-12-11T07:30:55.724Z,12.15
2017-12-11T07:33:23.281Z,12.68
2017-12-11T07:35:50.824Z,12.95
2017-12-11T07:38:19.072Z,14.00
2017-12-11T07:40:46.535Z,13.50
2017-12-11T07:43:14.755Z,12.43
2017-12-11T07:45:42.330Z,13.88
2017-12-11T07:48:10.596Z,14.60
2017-12-11T07:50:38.849Z,12.98
2017-12-11T07:53:07.112Z,12.80
2017-12-11T07:55:35.340Z,14.68
2017-12-11T07:58:02.832Z,13.62
2017-12-11T08:00:30.348Z,13.75
2017-12-11T08:02:58.576Z,13.65
2017-12-11T08:05:26.060Z,13.80
2017-12-11T08:07:54.316Z,13.45
2017-12-11T08:10:22.538Z,13.90
2017-12-11T08:12:50.022Z,13.15
2017-12-11T08:15:18.274Z,14.95
2017-12-11T08:17:45.741Z,13.90
2017-12-11T08:20:13.200Z,13.70
2017-12-11T08:22:40.679Z,13.32
2017-12-11T08:25:08.148Z,13.65
2017-12-11T08:27:35.662Z,14.02
2017-12-11T08:32:25.912Z,13.02
2017-12-11T08:34:53.375Z,13.40
2017-12-11T08:37:20.836Z,12.55
2017-12-11T08:39:49.061Z,14.25
2017-12-11T08:42:16.620Z,14.93
2017-12-11T08:44:44.084Z,14.90
2017-12-11T08:47:11.543Z,13.10
2017-12-11T08:49:39.024Z,13.60
2017-12-11T08:52:06.480Z,13.18
2017-12-11T08:54:33.928Z,15.30
2017-12-11T08:57:01.410Z,13.57
2017-12-11T08:59:28.866Z,15.00
2017-12-11T09:01:56.324Z,13.68
2017-12-11T09:04:24.376Z,14.02
2017-12-11T09:06:51.887Z,12.88
2017-12-11T09:09:20.136Z,13.07
2017-12-11T09:11:47.680Z,13.02
2017-12-11T09:14:15.236Z,15.00
2017-12-11T09:16:43.460Z,15.00
2017-12-11T09:19:10.913Z,20.65
2017-12-11T09:21:38.368Z,27.55
2017-12-11T09:24:05.919Z,26.83
2017-12-11T09:26:34.272Z,16.55
2017-12-11T09:29:02.535Z,14.45
2017-12-11T09:31:30.757Z,17.00
2017-12-11T09:33:58.216Z,16.80
2017-12-11T09:36:25.786Z,17.35
2017-12-11T09:38:53.324Z,19.23
2017-12-11T09:41:20.781Z,16.87
2017-12-11T09:43:49.026Z,15.00
2017-12-11T09:46:16.572Z,14.87
2017-12-11T09:48:44.113Z,14.13
2017-12-11T09:51:11.568Z,14.77
2017-12-11T09:53:39.809Z,16.85
2017-12-11T09:56:07.356Z,15.75
2017-12-11T09:58:34.900Z,16.12
2017-12-11T10:01:03.156Z,15.43
2017-12-11T10:03:30.704Z,15.93
2017-12-11T10:05:58.171Z,16.40
2017-12-11T10:08:25.632Z,14.35
2017-12-11T10:10:53.132Z,14.63
2017-12-11T10:13:20.585Z,14.15
2017-12-11T10:15:48.811Z,15.93
2017-12-11T10:18:16.280Z,17.08
2017-12-11T10:20:44.505Z,16.20
2017-12-11T10:23:11.957Z,16.17
2017-12-11T10:25:39.511Z,15.88
2017-12-11T10:28:06.970Z,15.75
2017-12-11T10:30:35.187Z,16.12
2017-12-11T10:33:02.649Z,20.25
2017-12-11T10:35:30.130Z,31.30
2017-12-11T10:37:57.604Z,24.65
2017-12-11T10:40:25.109Z,21.30
2017-12-11T10:42:52.650Z,21.70
2017-12-11T10:45:20.108Z,21.83
2017-12-11T10:47:48.336Z,20.00
2017-12-11T10:50:15.796Z,18.92
2017-12-11T10:52:44.057Z,17.40
2017-12-11T10:55:11.601Z,17.77
2017-12-11T10:57:39.124Z,19.65
2017-12-11T11:00:06.684Z,16.90
2017-12-11T11:02:34.227Z,19.75
2017-12-11T11:05:01.680Z,19.37
2017-12-11T11:07:29.897Z,19.37
2017-12-11T11:09:57.372Z,19.25
2017-12-11T11:12:25.635Z,17.23
2017-12-11T11:14:53.177Z,17.60
2017-12-11T11:17:21.443Z,19.35
2017-12-11T11:19:49.698Z,21.00
2017-12-11T11:22:17.941Z,17.65
2017-12-11T11:24:45.394Z,18.05
2017-12-11T11:27:13.621Z,16.62
2017-12-11T11:29:41.097Z,19.45
2017-12-11T11:32:08.553Z,18.50
2017-12-11T11:34:36.772Z,18.67
2017-12-11T11:37:04.340Z,18.95
2017-12-11T11:39:33.300Z,18.55
2017-12-11T11:42:00.756Z,18.92
2017-12-11T11:44:28.216Z,18.25
2017-12-11T11:46:56.466Z,17.77
2017-12-11T11:49:23.936Z,18.58
2017-12-11T11:51:51.443Z,18.58
2017-12-11T11:54:18.988Z,18.25
2017-12-11T11:56:46.536Z,19.48
2017-12-11T11:59:14.760Z,19.83
2017-12-11T12:01:42.224Z,19.45
2017-12-11T12:04:09.680Z,19.62
2017-12-11T12:06:37.937Z,16.80
2017-12-11T12:09:05.389Z,17.55
2017-12-11T12:11:33.633Z,18.40
2017-12-11T12:14:01.181Z,18.98
2017-12-11T12:16:28.724Z,17.75
2017-12-11T12:18:56.268Z,17.80
2017-12-11T12:21:23.720Z,17.70
2017-12-11T12:23:51.952Z,17.17
2017-12-11T12:26:19.508Z,18.00
2017-12-11T12:28:46.966Z,18.55
2017-12-11T12:31:15.211Z,16.15
2017-12-11T12:33:42.673Z,16.65
2017-12-11T12:36:10.908Z,17.02
2017-12-11T12:38:38.461Z,17.42
2017-12-11T12:41:06.720Z,17.37
2017-12-11T12:43:34.940Z,16.60
2017-12-11T12:46:02.405Z,15.95
2017-12-11T12:48:29.964Z,16.77
2017-12-11T12:50:57.522Z,16.50
2017-12-11T12:53:25.764Z,15.65
2017-12-11T12:55:54.024Z,16.02
2017-12-11T12:58:21.496Z,15.32
2017-12-11T13:00:48.948Z,17.30
2017-12-11T13:03:16.452Z,16.77
2017-12-11T13:05:43.928Z,15.85
2017-12-11T13:08:11.380Z,16.90
2017-12-11T13:10:38.893Z,15.70
2017-12-11T13:13:07.112Z,16.62
2017-12-11T13:15:34.675Z,14.85
2017-12-11T13:18:02.228Z,16.62
2017-12-11T13:20:29.764Z,17.10
2017-12-11T13:22:57.368Z,15.95
2017-12-11T13:25:24.858Z,15.55
2017-12-11T13:27:52.399Z,16.35
2017-12-11T13:30:19.856Z,16.95
2017-12-11T13:32:48.104Z,16.08
2017-12-11T13:35:16.364Z,19.73
2017-12-11T13:37:43.900Z,15.45
2017-12-11T13:40:11.381Z,16.83
2017-12-11T13:42:38.824Z,15.75
2017-12-11T13:45:06.285Z,17.77
2017-12-11T13:47:33.748Z,16.52
2017-12-11T13:50:01.232Z,17.85
2017-12-11T13:52:29.453Z,17.05
2017-12-11T13:54:57.017Z,16.70
2017-12-11T13:57:24.480Z,16.87
2017-12-11T13:59:52.716Z,16.75
2017-12-11T14:02:20.255Z,18.35
2017-12-11T14:04:47.805Z,17.35
2017-12-11T14:07:15.349Z,17.77
2017-12-11T14:09:44.480Z,17.27
2017-12-11T14:12:11.976Z,15.63
2017-12-11T14:14:40.208Z,16.55
2017-12-11T14:17:07.773Z,15.38
2017-12-11T14:19:35.323Z,16.10
2017-12-11T14:22:03.544Z,17.20
2017-12-11T14:24:30.995Z,15.85
2017-12-11T14:26:58.456Z,15.50
2017-12-11T14:29:26.005Z,14.40
2017-12-11T14:31:54.277Z,14.60
2017-12-11T14:34:22.496Z,13.98
2017-12-11T14:36:49.959Z,15.13
2017-12-11T14:39:17.508Z,15.10
2017-12-11T14:41:45.049Z,14.85
2017-12-11T14:44:12.604Z,14.15
2017-12-11T14:46:40.847Z,14.52
2017-12-11T14:49:08.392Z,14.30
2017-12-11T14:51:35.945Z,15.20
2017-12-11T14:54:03.489Z,14.85
2017-12-11T14:56:31.082Z,14.32
2017-12-11T14:58:58.544Z,15.48
2017-12-11T15:01:26.013Z,12.95
2017-12-11T15:03:53.552Z,13.82
2017-12-11T15:06:21.204Z,13.73
2017-12-11T15:08:48.804Z,14.70
2017-12-11T15:11:16.291Z,13.27
2017-12-11T15:13:43.839Z,14.15
2017-12-11T15:16:11.372Z,13.50
2017-12-11T15:18:38.832Z,13.55
2017-12-11T15:21:07.061Z,12.40
2017-12-11T15:23:34.529Z,14.10
2017-12-11T15:26:02.783Z,13.15
2017-12-11T15:28:30.244Z,13.50
2017-12-11T15:30:57.714Z,13.80
2017-12-11T15:33:25.209Z,13.25
2017-12-11T15:35:52.744Z,14.60
2017-12-11T15:38:20.204Z,13.50
2017-12-11T15:40:48.453Z,15.85
2017-12-11T15:43:16.704Z,13.25
2017-12-11T15:45:44.196Z,13.30
2017-12-11T15:48:11.650Z,13.50
2017-12-11T15:50:39.099Z,15.25
2017-12-11T15:53:06.567Z,13.62
2017-12-11T15:55:34.023Z,16.05
2017-12-11T15:58:02.281Z,15.10
2017-12-11T16:00:29.732Z,14.25
2017-12-11T16:02:57.977Z,14.55
2017-12-11T16:05:25.436Z,15.68
2017-12-11T16:07:53.684Z,14.90
2017-12-11T16:10:21.224Z,16.70
2017-12-11T16:12:48.679Z,14.18
2017-12-11T16:15:16.904Z,14.30
2017-12-11T16:17:44.377Z,14.52
2017-12-11T16:20:12.639Z,15.02
2017-12-11T16:22:40.849Z,17.98
2017-12-11T16:25:08.316Z,24.42
2017-12-11T16:27:35.769Z,20.00
2017-12-11T16:30:03.316Z,23.83
2017-12-11T16:32:30.856Z,17.75
2017-12-11T16:34:58.408Z,18.70
2017-12-11T16:37:26.649Z,19.67
2017-12-11T16:39:54.220Z,20.55
2017-12-11T16:42:22.447Z,18.00
2017-12-11T16:44:50.016Z,18.25
2017-12-11T16:47:18.247Z,22.05
2017-12-11T16:49:45.816Z,22.35
2017-12-11T16:52:14.075Z,18.92
2017-12-11T16:54:42.346Z,18.15
2017-12-11T16:57:10.605Z,16.15
2017-12-11T16:59:38.829Z,18.45
2017-12-11T17:02:06.300Z,17.00
2017-12-11T17:04:34.540Z,17.35
2017-12-11T17:07:02.000Z,17.33
2017-12-11T17:09:30.262Z,17.40
2017-12-11T17:11:58.495Z,17.92
2017-12-11T17:14:25.962Z,16.45
2017-12-11T17:16:54.226Z,18.08
2017-12-11T17:19:22.461Z,18.95
2017-12-11T17:21:49.918Z,16.80
2017-12-11T17:24:18.920Z,15.27
2017-12-11T17:26:47.145Z,17.67
2017-12-11T17:29:14.701Z,16.17
2017-12-11T17:31:42.165Z,16.87
2017-12-11T17:34:10.412Z,16.87
2017-12-11T17:36:39.803Z,18.87
2017-12-11T17:39:08.054Z,18.95
2017-12-11T17:41:36.310Z,19.40
2017-12-11T17:44:03.849Z,16.37
2017-12-11T17:46:31.393Z,17.40
2017-12-11T17:48:58.849Z,18.35
2017-12-11T17:51:27.109Z,16.85
2017-12-11T17:53:55.356Z,15.63
2017-12-11T17:56:22.895Z,16.60
2017-12-11T17:58:50.466Z,17.87
2017-12-11T18:01:18.709Z,16.45
2017-12-11T18:03:46.960Z,15.23
2017-12-11T18:06:14.505Z,15.95
2017-12-11T18:08:42.105Z,15.82
2017-12-11T18:11:09.586Z,16.17
2017-12-11T18:13:37.560Z,17.08
2017-12-11T18:16:05.810Z,17.98
2017-12-11T18:18:34.089Z,17.35
2017-12-11T18:21:01.576Z,17.50
2017-12-11T18:23:29.036Z,17.40
2017-12-11T18:25:56.496Z,18.40
2017-12-11T18:28:24.764Z,19.30
2017-12-11T18:30:53.803Z,21.05
2017-12-11T18:33:21.271Z,18.58
2017-12-11T18:35:48.733Z,18.42
2017-12-11T18:38:16.962Z,16.87
2017-12-11T18:40:44.521Z,19.35
2017-12-11T18:43:11.985Z,19.90
2017-12-11T18:45:39.447Z,22.25
2017-12-11T18:48:06.947Z,20.37
2017-12-11T18:50:34.493Z,21.25
2017-12-11T18:53:02.724Z,22.83
2017-12-11T18:55:30.188Z,21.17
2017-12-11T18:57:57.683Z,21.27
2017-12-11T19:00:25.141Z,23.12
2017-12-11T19:02:52.592Z,21.10
2017-12-11T19:05:20.794Z,21.27
2017-12-11T19:07:48.263Z,25.00
2017-12-11T19:10:15.721Z,24.98
2017-12-11T19:12:43.190Z,25.40
2017-12-11T19:15:10.747Z,23.42
2017-12-11T19:17:39.006Z,22.95
2017-12-11T19:20:06.472Z,24.85
2017-12-11T19:22:34.020Z,23.77
2017-12-11T19:25:01.563Z,23.30
2017-12-11T19:27:29.793Z,24.42
2017-12-11T19:29:57.296Z,22.55
2017-12-11T19:32:24.816Z,23.40
2017-12-11T19:34:53.072Z,22.52
2017-12-11T19:37:20.549Z,23.33
2017-12-11T19:39:48.060Z,24.77
2017-12-11T19:42:16.301Z,25.92
2017-12-11T19:44:43.779Z,28.20
2017-12-11T19:47:11.994Z,27.65
2017-12-11T19:49:39.490Z,27.90
2017-12-11T19:52:07.004Z,29.60
2017-12-11T19:54:34.553Z,29.15
2017-12-11T19:57:02.785Z,30.05
2017-12-11T19:59:30.248Z,28.65
2017-12-11T20:01:58.509Z,27.05
2017-12-11T20:04:26.800Z,22.87
2017-12-11T20:06:54.309Z,24.63
2017-12-11T20:09:21.856Z,23.05
2017-12-11T20:11:50.135Z,23.67
2017-12-11T20:14:18.362Z,23.23
2017-12-11T20:16:45.810Z,20.02
2017-12-11T20:19:13.282Z,26.05
2017-12-11T20:21:40.803Z,24.17
2017-12-11T20:24:09.059Z,26.45
2017-12-11T20:26:37.284Z,26.62
2017-12-11T20:29:04.888Z,21.87
2017-12-11T20:31:33.127Z,23.30
2017-12-11T20:34:01.360Z,24.33
2017-12-11T20:36:28.809Z,22.35
2017-12-11T20:38:56.276Z,26.65
2017-12-11T20:41:23.737Z,24.67
2017-12-11T20:43:51.240Z,25.05
2017-12-11T20:46:18.735Z,27.27
2017-12-11T20:48:46.203Z,26.95
2017-12-11T20:51:13.673Z,26.20
2017-12-11T20:53:41.227Z,25.45
2017-12-11T20:56:08.688Z,27.52
2017-12-11T20:58:36.159Z,27.73
2017-12-11T21:01:03.654Z,27.90
2017-12-11T21:03:31.873Z,28.73
2017-12-11T21:05:59.460Z,27.85
2017-12-11T21:08:26.937Z,26.80
2017-12-11T21:10:54.404Z,26.80
2017-12-11T21:13:21.943Z,27.10
2017-12-11T21:15:49.450Z,27.33
2017-12-11T21:18:16.915Z,28.17
2017-12-11T21:20:44.377Z,27.10
2017-12-11T21:23:11.927Z,26.75
2017-12-11T21:25:39.584Z,28.05
2017-12-11T21:28:07.806Z,28.00
2017-12-11T21:30:35.372Z,27.73
2017-12-11T21:33:02.831Z,29.37
2017-12-11T21:35:31.127Z,28.98
2017-12-11T21:37:58.648Z,26.95
2017-12-11T21:40:26.101Z,23.33
2017-12-11T21:42:53.608Z,21.65
2017-12-11T21:45:21.937Z,19.55
2017-12-11T21:47:49.401Z,19.80
2017-12-11T21:50:16.958Z,21.02
2017-12-11T21:52:45.201Z,20.08
2017-12-11T21:55:12.660Z,21.08
2017-12-11T21:57:40.889Z,20.27
2017-12-11T22:00:08.456Z,18.00
2017-12-11T22:02:35.908Z,19.02
2017-12-11T22:05:04.149Z,20.37
2017-12-11T22:07:31.605Z,19.65
2017-12-11T22:09:59.844Z,21.50
2017-12-11T22:12:27.304Z,19.77
2017-12-11T22:14:54.850Z,19.40
2017-12-11T22:17:22.316Z,21.05
2017-12-11T22:19:49.772Z,20.95
2017-12-11T22:22:17.348Z,23.38
2017-12-11T22:24:44.805Z,22.00
2017-12-11T22:27:13.050Z,22.65
2017-12-11T22:29:41.304Z,21.65
2017-12-11T22:32:08.760Z,23.05
2017-12-11T22:34:37.111Z,25.15
2017-12-11T22:37:04.653Z,24.27
2017-12-11T22:39:32.141Z,25.70
2017-12-11T22:41:59.606Z,25.70
2017-12-11T22:44:27.059Z,24.45
2017-12-11T22:46:54.630Z,24.35
2017-12-11T22:49:22.888Z,25.67
2017-12-11T22:51:50.425Z,22.90
2017-12-11T22:54:17.976Z,24.52
2017-12-11T22:56:45.447Z,24.37
2017-12-11T22:59:12.901Z,22.98
2017-12-11T23:01:40.396Z,24.02
2017-12-11T23:04:07.940Z,25.95
2017-12-11T23:06:35.481Z,23.12
2017-12-11T23:09:02.937Z,24.17
2017-12-11T23:11:31.180Z,22.35
2017-12-11T23:13:58.733Z,21.60
2017-12-11T23:16:26.988Z,23.85
2017-12-11T23:18:54.532Z,22.27
2017-12-11T23:21:22.005Z,21.58
2017-12-11T23:23:49.516Z,22.55
2017-12-11T23:26:19.519Z,21.15
2017-12-11T23:28:47.064Z,21.70
2017-12-11T23:31:15.319Z,20.02
2017-12-11T23:33:42.869Z,20.67
2017-12-11T23:36:11.104Z,21.33
2017-12-11T23:38:38.663Z,20.52
2017-12-11T23:41:06.125Z,21.27
2017-12-11T23:43:34.356Z,20.55
2017-12-11T23:46:01.917Z,19.17
2017-12-11T23:48:29.384Z,19.25
2017-12-11T23:50:56.900Z,19.35
2017-12-11T23:53:25.165Z,19.48
2017-12-11T23:55:53.420Z,17.65
2017-12-11T23:58:21.643Z,17.77
